createdAt,value
2023-03-19T09:52:45.575Z,100578.55
2023-03-19T09:55:42.072Z,100580.59
2023-03-19T09:58:17.175Z,100570.67
2023-03-19T10:00:54.904Z,100562.73
2023-03-19T10:03:47.140Z,100561.27
2023-03-19T10:06:37.601Z,100560.44
2023-03-19T10:09:33.768Z,100558.27
2023-03-19T10:12:32.157Z,100544.53
2023-03-19T10:15:34.105Z,100541.48
2023-03-19T10:18:24.917Z,100537.16
2023-03-19T10:21:10.541Z,100527.58
2023-03-19T10:24:10.312Z,100519.76
2023-03-19T10:26:39.729Z,100515.60
2023-03-19T10:29:26.559Z,100513.45
2023-03-19T10:32:05.058Z,100508.93
2023-03-19T10:34:49.137Z,100506.48
2023-03-19T10:38:13.467Z,100497.73
2023-03-19T10:41:39.404Z,100488.42
2023-03-19T10:44:53.352Z,100481.09
2023-03-19T10:47:26.520Z,100481.58
2023-03-19T10:50:00.190Z,100472.58
2023-03-19T10:52:34.350Z,100473.86
2023-03-19T10:55:29.337Z,100465.95
2023-03-19T10:58:06.674Z,100467.70
2023-03-19T11:00:35.779Z,100460.00
2023-03-19T11:03:06.695Z,100457.23
2023-03-19T11:05:35.468Z,100450.70
2023-03-19T11:08:32.821Z,100446.91
2023-03-19T11:11:33.711Z,100440.88
2023-03-19T11:14:20.305Z,100440.19
2023-03-19T11:16:51.753Z,100437.89
2023-03-19T11:19:25.219Z,100432.44
2023-03-19T11:22:02.108Z,100434.98
2023-03-19T11:24:39.202Z,100437.98
2023-03-19T11:27:09.656Z,100435.15
2023-03-19T11:29:44.756Z,100427.94
2023-03-19T11:32:22.044Z,100419.52
2023-03-19T11:35:05.033Z,100418.58
2023-03-19T11:37:52.162Z,100417.52
2023-03-19T11:41:07.238Z,100411.94
2023-03-19T11:43:50.385Z,100410.02
2023-03-19T11:46:40.469Z,100406.38
2023-03-19T11:49:42.460Z,100404.29
2023-03-19T11:52:26.269Z,100401.94
2023-03-19T11:55:17.777Z,100400.92
2023-03-19T11:58:12.395Z,100395.45
2023-03-19T12:01:53.864Z,100394.51
2023-03-19T12:05:03.308Z,100389.72
2023-03-19T12:08:00.600Z,100386.87
2023-03-19T12:10:54.627Z,100386.45
2023-03-19T12:13:34.287Z,100384.20
2023-03-19T12:16:16.480Z,100387.37
2023-03-19T12:19:21.823Z,100385.18
2023-03-19T12:21:58.958Z,100384.32
2023-03-19T12:25:12.958Z,100383.67
2023-03-19T12:28:16.777Z,100375.65
2023-03-19T12:31:06.384Z,100374.57
2023-03-19T12:34:00.826Z,100374.97
2023-03-19T12:36:30.559Z,100372.14
2023-03-19T12:39:03.369Z,100373.77
2023-03-19T12:41:34.994Z,100375.76
2023-03-19T12:44:09.313Z,100378.83
2023-03-19T12:47:28.244Z,100378.87
2023-03-19T12:50:27.595Z,100369.08
2023-03-19T12:52:59.430Z,100362.98
2023-03-19T12:55:48.414Z,100364.84
2023-03-19T12:58:26.605Z,100361.85
2023-03-19T13:01:09.166Z,100360.10
2023-03-19T13:03:58.700Z,100368.18
2023-03-19T13:06:39.028Z,100364.12
2023-03-19T13:09:20.784Z,100360.21
2023-03-19T13:12:10.774Z,100355.98
2023-03-19T13:15:06.570Z,100343.96
2023-03-19T13:18:14.452Z,100338.46
2023-03-19T13:21:15.440Z,100331.38
2023-03-19T13:23:46.200Z,100328.80
2023-03-19T13:26:19.175Z,100328.04
2023-03-19T13:29:09.851Z,100329.26
2023-03-19T13:31:39.583Z,100331.69
2023-03-19T13:34:19.185Z,100334.80
2023-03-19T13:36:52.302Z,100336.27
2023-03-19T13:39:30.145Z,100334.70
2023-03-19T13:42:20.196Z,100330.73
2023-03-19T13:45:03.568Z,100324.16
2023-03-19T13:58:23.269Z,100312.63
2023-03-19T14:05:15.788Z,100302.45
2023-03-19T14:07:48.983Z,100299.31
2023-03-19T14:10:46.324Z,100299.92
2023-03-19T14:13:31.822Z,100301.85
2023-03-19T14:16:22.910Z,100299.25
2023-03-19T14:18:57.853Z,100300.00
2023-03-19T14:21:46.910Z,100298.14
2023-03-19T14:24:55.123Z,100296.53
2023-03-19T14:27:34.114Z,100294.63
2023-03-19T14:30:39.732Z,100288.00
2023-03-19T14:33:18.466Z,100285.57
2023-03-19T14:35:51.426Z,100286.41
2023-03-19T14:38:37.697Z,100287.22
2023-03-19T14:41:09.068Z,100286.17
2023-03-19T14:44:16.634Z,100286.91
2023-03-19T14:46:57.483Z,100291.30
2023-03-19T14:49:45.451Z,100291.30
2023-03-19T14:52:16.129Z,100284.48
2023-03-19T14:54:49.513Z,100282.85
2023-03-19T14:57:29.863Z,100285.64
2023-03-19T15:00:03.940Z,100281.62
2023-03-19T15:02:45.792Z,100279.60
2023-03-19T15:05:37.587Z,100281.48
2023-03-19T15:08:13.155Z,100280.13
2023-03-19T15:11:08.241Z,100278.90
2023-03-19T15:13:46.785Z,100285.86
2023-03-19T15:16:34.496Z,100283.31
2023-03-19T15:19:03.741Z,100284.77
2023-03-19T15:21:34.463Z,100284.23
2023-03-19T15:24:09.410Z,100283.33
2023-03-19T15:26:39.571Z,100286.65
2023-03-19T15:29:12.493Z,100283.61
2023-03-19T15:32:02.459Z,100281.54
2023-03-19T15:34:38.100Z,100283.86
2023-03-19T15:37:14.291Z,100283.36
2023-03-19T15:39:51.945Z,100287.02
2023-03-19T15:42:27.777Z,100285.99
2023-03-19T15:45:03.211Z,100285.95
2023-03-19T15:47:32.625Z,100287.92
2023-03-19T15:50:17.126Z,100290.38
2023-03-19T15:52:51.670Z,100289.58
2023-03-19T15:55:25.170Z,100287.45
2023-03-19T15:57:58.037Z,100283.77
2023-03-19T16:00:26.349Z,100281.78
2023-03-19T16:02:55.665Z,100282.40
2023-03-19T16:05:32.175Z,100287.07
2023-03-19T16:08:16.364Z,100285.18
2023-03-19T16:10:47.925Z,100285.95
2023-03-19T16:13:33.488Z,100283.09
2023-03-19T16:16:10.995Z,100288.59
2023-03-19T16:18:45.757Z,100292.15
2023-03-19T16:21:17.770Z,100289.31
2023-03-19T16:23:58.767Z,100289.60
2023-03-19T16:26:48.169Z,100287.30
2023-03-19T16:29:29.922Z,100288.45
2023-03-19T16:32:06.764Z,100285.36
2023-03-19T16:34:49.318Z,100287.52
2023-03-19T16:37:37.598Z,100289.55
2023-03-19T16:40:20.474Z,100289.46
2023-03-19T16:42:52.876Z,100289.61
2023-03-19T16:45:34.165Z,100294.32
2023-03-19T16:48:09.684Z,100293.84
2023-03-19T16:50:41.496Z,100297.02
2023-03-19T16:53:44.836Z,100296.00
2023-03-19T16:56:14.064Z,100294.46
2023-03-19T16:58:45.482Z,100293.20
2023-03-19T17:01:18.654Z,100298.28
2023-03-19T17:03:49.730Z,100297.73
2023-03-19T17:06:19.355Z,100299.81
2023-03-19T17:08:51.344Z,100301.27
2023-03-19T17:11:34.719Z,100302.23
2023-03-19T17:14:08.565Z,100303.34
2023-03-19T17:16:48.621Z,100297.83
2023-03-19T17:19:19.583Z,100302.58
2023-03-19T17:21:53.860Z,100300.51
2023-03-19T17:24:26.062Z,100304.57
2023-03-19T17:26:55.718Z,100305.91
2023-03-19T17:29:26.580Z,100302.75
2023-03-19T17:31:56.105Z,100298.70
2023-03-19T17:34:30.934Z,100300.48
2023-03-19T17:40:49.517Z,100296.92
2023-03-19T17:43:35.803Z,100292.52
2023-03-19T17:46:05.593Z,100286.44
2023-03-19T17:48:38.811Z,100288.81
2023-03-19T17:51:07.408Z,100291.96
2023-03-19T17:53:38.183Z,100290.11
2023-03-19T17:56:11.558Z,100292.42
2023-03-19T17:58:41.692Z,100289.05
2023-03-19T18:01:19.375Z,100286.02
2023-03-19T18:03:49.072Z,100287.34
2023-03-19T18:06:19.030Z,100286.61
2023-03-19T18:08:52.979Z,100292.83
2023-03-19T18:11:22.292Z,100290.91
2023-03-19T18:13:51.221Z,100294.20
2023-03-19T18:16:50.272Z,100297.48
2023-03-19T18:19:37.961Z,100297.91
2023-03-19T18:22:16.841Z,100296.93
2023-03-19T18:24:48.989Z,100297.90
2023-03-19T18:27:17.590Z,100296.21
2023-03-19T18:29:51.990Z,100299.04
2023-03-19T18:32:30.088Z,100298.92
2023-03-19T18:34:59.504Z,100300.38
2023-03-19T18:37:33.003Z,100297.44
2023-03-19T18:40:02.681Z,100298.17
2023-03-19T18:42:36.947Z,100293.71
2023-03-19T18:45:06.926Z,100290.69
2023-03-19T18:47:36.309Z,100292.98
2023-03-19T18:50:36.463Z,100296.58
2023-03-19T18:53:06.138Z,100293.25
2023-03-19T18:55:42.983Z,100286.69
2023-03-19T18:58:27.452Z,100287.68
2023-03-19T19:00:56.082Z,100289.38
2023-03-19T19:03:29.656Z,100292.83
2023-03-19T19:06:03.661Z,100290.89
2023-03-19T19:08:37.831Z,100290.06
2023-03-19T19:11:10.088Z,100288.30
2023-03-19T19:13:55.254Z,100290.23
2023-03-19T19:16:40.864Z,100294.02
2023-03-19T19:19:36.256Z,100289.50
2023-03-19T19:22:09.163Z,100287.38
2023-03-19T19:24:44.298Z,100282.61
2023-03-19T19:27:26.034Z,100288.27
2023-03-19T19:30:01.936Z,100294.40
2023-03-19T19:32:37.085Z,100297.20
2023-03-19T19:35:17.324Z,100304.65
2023-03-19T19:37:51.780Z,100304.58
2023-03-19T19:40:25.744Z,100305.90
2023-03-19T19:43:05.099Z,100306.50
2023-03-19T19:45:38.053Z,100304.66
2023-03-19T19:48:17.007Z,100306.55
2023-03-19T19:50:47.175Z,100304.75
2023-03-19T19:53:16.378Z,100301.19
2023-03-19T19:55:47.931Z,100298.04
2023-03-19T19:58:39.473Z,100294.98
2023-03-19T20:01:20.739Z,100293.36
2023-03-19T20:03:52.258Z,100295.98
2023-03-19T20:06:23.864Z,100292.95
2023-03-19T20:08:53.218Z,100292.55
2023-03-19T20:11:25.385Z,100291.22
2023-03-19T20:13:55.719Z,100294.34
2023-03-19T20:16:25.705Z,100289.41
2023-03-19T20:18:55.265Z,100286.14
2023-03-19T20:21:24.328Z,100281.65
2023-03-19T20:23:55.652Z,100280.55
2023-03-19T20:26:24.985Z,100280.13
2023-03-19T20:28:56.283Z,100284.30
2023-03-19T20:31:27.705Z,100281.19
2023-03-19T20:33:57.506Z,100279.48
2023-03-19T20:36:28.509Z,100276.31
2023-03-19T20:38:56.880Z,100278.00
2023-03-19T20:41:29.268Z,100277.02
2023-03-19T20:43:58.212Z,100275.84
2023-03-19T20:46:31.650Z,100279.27
2023-03-19T20:49:02.195Z,100279.92
2023-03-19T20:51:32.568Z,100274.79
2023-03-19T20:54:06.278Z,100279.39
2023-03-19T20:56:39.382Z,100281.94
2023-03-19T20:59:11.538Z,100281.00
2023-03-19T21:01:57.811Z,100284.45
2023-03-19T21:04:28.145Z,100286.14
2023-03-19T21:07:00.542Z,100283.98
2023-03-19T21:09:32.972Z,100285.30
2023-03-19T21:12:16.972Z,100280.30
2023-03-19T21:14:46.768Z,100278.07
2023-03-19T21:17:17.001Z,100286.04
2023-03-19T21:19:50.125Z,100290.31
2023-03-19T21:22:27.318Z,100294.17
2023-03-19T21:25:06.027Z,100294.23
2023-03-19T21:27:36.304Z,100296.10
2023-03-19T21:30:06.881Z,100301.55
2023-03-19T21:32:58.347Z,100307.10
2023-03-19T21:35:32.419Z,100302.77
2023-03-19T21:38:01.891Z,100303.05
2023-03-19T21:40:31.224Z,100301.11
2023-03-19T21:43:04.279Z,100300.25
2023-03-19T21:45:37.149Z,100297.23
2023-03-19T21:48:43.165Z,100298.62
2023-03-19T21:51:30.333Z,100299.50
2023-03-19T21:55:25.239Z,100301.88
2023-03-19T21:58:15.214Z,100296.67
2023-03-19T22:00:44.205Z,100293.91
2023-03-19T22:03:18.844Z,100292.15
2023-03-19T22:05:58.408Z,100293.06
2023-03-19T22:08:33.162Z,100291.71
2023-03-19T22:11:06.357Z,100289.98
2023-03-19T22:13:39.063Z,100289.42
2023-03-19T22:16:15.176Z,100288.84
2023-03-19T22:18:44.240Z,100283.48
2023-03-19T22:21:16.941Z,100281.63
2023-03-19T22:23:49.591Z,100280.46
2023-03-19T22:26:25.094Z,100276.30
2023-03-19T22:29:08.494Z,100279.33
2023-03-19T22:31:39.496Z,100279.50
2023-03-19T22:34:13.957Z,100279.38
2023-03-19T22:36:46.679Z,100279.09
2023-03-19T22:39:16.496Z,100275.74
2023-03-19T22:41:48.375Z,100274.25
2023-03-19T22:44:28.560Z,100274.96
2023-03-19T22:46:59.149Z,100270.23
2023-03-19T22:49:30.163Z,100272.20
2023-03-19T22:52:02.589Z,100277.27
2023-03-19T22:54:35.180Z,100278.36
2023-03-19T22:57:06.909Z,100277.66
2023-03-19T22:59:38.148Z,100275.71
2023-03-19T23:02:14.357Z,100270.90
2023-03-19T23:04:43.228Z,100270.02
2023-03-19T23:07:15.135Z,100269.18
2023-03-19T23:09:46.454Z,100266.41
2023-03-19T23:12:16.878Z,100268.80
2023-03-19T23:14:46.167Z,100271.11
2023-03-19T23:17:17.745Z,100269.02
2023-03-19T23:19:50.636Z,100270.52
2023-03-19T23:22:21.110Z,100265.11
2023-03-19T23:28:37.912Z,100259.08
2023-03-19T23:31:10.441Z,100259.14
2023-03-19T23:33:38.960Z,100255.33
2023-03-19T23:36:07.835Z,100251.66
2023-03-19T23:38:38.009Z,100250.98
2023-03-19T23:41:07.661Z,100253.46
2023-03-19T23:43:36.885Z,100252.66
2023-03-19T23:46:08.585Z,100250.80
2023-03-19T23:48:38.928Z,100257.28
2023-03-19T23:51:15.182Z,100247.48
2023-03-19T23:53:46.109Z,100243.35
2023-03-19T23:56:20.184Z,100243.95
2023-03-19T23:58:52.916Z,100243.02
